createdAt,value
2023-02-27T00:02:19.819Z,101072.69
2023-02-27T00:05:01.045Z,101074.53
2023-02-27T00:07:29.090Z,101081.22
2023-02-27T00:09:57.462Z,101091.88
2023-02-27T00:12:25.328Z,101096.75
2023-02-27T00:14:53.065Z,101086.75
2023-02-27T00:17:20.871Z,101079.22
2023-02-27T00:19:52.875Z,101092.91
2023-02-27T00:22:20.462Z,101103.44
2023-02-27T00:24:48.355Z,101080.66
2023-02-27T00:27:15.974Z,101084.50
2023-02-27T00:29:45.187Z,101082.50
2023-02-27T00:32:16.981Z,101088.63
2023-02-27T00:34:45.733Z,101081.34
2023-02-27T00:37:13.431Z,101073.09
2023-02-27T00:39:41.179Z,101075.97
2023-02-27T00:42:08.874Z,101074.81
2023-02-27T00:44:38.746Z,101090.91
2023-02-27T00:47:07.893Z,101102.72
2023-02-27T00:49:35.977Z,101097.91
2023-02-27T00:52:04.633Z,101093.63
2023-02-27T00:54:34.697Z,101085.34
2023-02-27T00:57:02.938Z,101084.75
2023-02-27T00:59:30.679Z,101085.34
2023-02-27T01:01:58.532Z,101090.47
2023-02-27T01:04:32.573Z,101106.00
2023-02-27T01:07:00.333Z,101119.84
2023-02-27T01:09:28.113Z,101106.53
2023-02-27T01:11:55.701Z,101093.88
2023-02-27T01:14:23.587Z,101096.59
2023-02-27T01:16:51.511Z,101098.72
2023-02-27T01:19:19.754Z,101101.88
2023-02-27T01:21:47.445Z,101109.56
2023-02-27T01:24:20.380Z,101104.31
2023-02-27T01:26:49.238Z,101115.84
2023-02-27T01:29:17.094Z,101121.22
2023-02-27T01:31:44.796Z,101129.22
2023-02-27T01:34:12.470Z,101147.16
2023-02-27T01:36:41.823Z,101146.31
2023-02-27T01:39:09.727Z,101152.00
2023-02-27T01:41:37.377Z,101154.25
2023-02-27T01:44:10.986Z,101143.41
2023-02-27T01:46:39.592Z,101135.31
2023-02-27T01:49:17.646Z,101154.50
2023-02-27T01:51:47.870Z,101152.94
2023-02-27T01:54:19.023Z,101167.09
2023-02-27T01:56:48.308Z,101161.84
2023-02-27T01:59:16.121Z,101152.25
2023-02-27T02:01:43.911Z,101149.38
2023-02-27T02:04:20.321Z,101145.31
2023-02-27T02:06:50.787Z,101143.41
2023-02-27T02:09:19.863Z,101141.84
2023-02-27T02:11:48.100Z,101142.03
2023-02-27T02:14:19.098Z,101153.84
2023-02-27T02:16:54.885Z,101141.72
2023-02-27T02:19:41.109Z,101140.31
2023-02-27T02:22:27.200Z,101144.88
2023-02-27T02:25:16.621Z,101143.56
2023-02-27T02:27:55.259Z,101143.53
2023-02-27T02:30:34.929Z,101150.09
2023-02-27T02:33:26.743Z,101163.75
2023-02-27T02:36:19.088Z,101172.22
2023-02-27T02:38:51.287Z,101179.59
2023-02-27T02:41:49.813Z,101178.47
2023-02-27T02:44:24.582Z,101174.03
2023-02-27T02:47:04.387Z,101169.59
2023-02-27T02:49:43.834Z,101173.59
2023-02-27T02:52:17.569Z,101191.94
2023-02-27T02:55:00.368Z,101209.53
2023-02-27T02:57:37.477Z,101196.00
2023-02-27T03:00:19.566Z,101173.16
2023-02-27T03:02:49.964Z,101171.25
2023-02-27T03:05:24.710Z,101170.72
2023-02-27T03:08:06.280Z,101172.00
2023-02-27T03:10:40.962Z,101204.63
2023-02-27T03:13:14.474Z,101182.41
2023-02-27T03:15:48.077Z,101151.09
2023-02-27T03:18:20.912Z,101126.75
2023-02-27T03:21:14.906Z,101094.09
2023-02-27T03:23:47.340Z,101085.22
2023-02-27T03:26:17.538Z,101103.75
2023-02-27T03:28:59.457Z,101117.22
2023-02-27T03:31:51.981Z,101131.56
2023-02-27T03:34:40.443Z,101132.13
2023-02-27T03:37:26.747Z,101137.97
2023-02-27T03:39:57.331Z,101128.19
2023-02-27T03:42:34.136Z,101127.78
2023-02-27T03:45:35.889Z,101130.75
2023-02-27T03:48:03.709Z,101120.50
2023-02-27T03:50:34.163Z,101133.44
2023-02-27T03:53:02.185Z,101131.41
2023-02-27T03:55:35.190Z,101133.06
2023-02-27T03:58:03.053Z,101129.41
2023-02-27T04:00:30.831Z,101141.25
2023-02-27T04:03:02.755Z,101181.53
2023-02-27T04:05:31.922Z,101175.72
2023-02-27T04:08:07.957Z,101175.59
2023-02-27T04:11:02.864Z,101182.84
2023-02-27T04:14:08.244Z,101185.28
2023-02-27T04:17:04.511Z,101173.88
2023-02-27T04:19:44.216Z,101159.84
2023-02-27T04:22:21.382Z,101146.81
2023-02-27T04:24:54.511Z,101149.66
2023-02-27T04:27:25.476Z,101160.78
2023-02-27T04:30:00.101Z,101155.09
2023-02-27T04:32:38.929Z,101147.97
2023-02-27T04:35:37.452Z,101168.53
2023-02-27T04:38:26.163Z,101163.91
2023-02-27T04:41:00.147Z,101143.41
2023-02-27T04:43:28.020Z,101153.78
2023-02-27T04:45:56.306Z,101149.97
2023-02-27T04:48:27.518Z,101143.19
2023-02-27T04:51:06.420Z,101145.50
2023-02-27T04:53:39.058Z,101152.78
2023-02-27T04:56:10.406Z,101150.78
2023-02-27T04:58:44.627Z,101154.34
2023-02-27T05:01:38.138Z,101142.81
2023-02-27T05:04:05.975Z,101146.22
2023-02-27T05:06:36.466Z,101159.59
2023-02-27T05:09:31.402Z,101164.97
2023-02-27T05:12:18.231Z,101158.72
2023-02-27T05:14:50.137Z,101149.16
2023-02-27T05:17:42.888Z,101162.84
2023-02-27T05:20:11.481Z,101162.91
2023-02-27T05:23:01.368Z,101162.84
2023-02-27T05:25:45.798Z,101151.88
2023-02-27T05:28:19.319Z,101150.47
2023-02-27T05:30:57.760Z,101155.47
2023-02-27T05:33:33.185Z,101177.22
2023-02-27T05:36:21.853Z,101179.69
2023-02-27T05:38:52.067Z,101186.63
2023-02-27T05:41:22.855Z,101189.06
2023-02-27T05:44:02.210Z,101195.66
2023-02-27T05:46:42.030Z,101205.97
2023-02-27T05:49:20.537Z,101217.91
2023-02-27T05:51:49.148Z,101209.00
2023-02-27T05:54:24.926Z,101199.94
2023-02-27T05:57:57.709Z,101214.16
2023-02-27T06:00:31.776Z,101220.56
2023-02-27T06:02:59.626Z,101218.47
2023-02-27T06:05:27.549Z,101215.78
2023-02-27T06:07:55.476Z,101222.22
2023-02-27T06:10:24.424Z,101210.69
2023-02-27T06:12:52.648Z,101219.06
2023-02-27T06:15:20.601Z,101219.50
2023-02-27T06:17:49.152Z,101221.50
2023-02-27T06:20:17.032Z,101227.63
2023-02-27T06:22:44.776Z,101217.84
2023-02-27T06:25:12.499Z,101218.53
2023-02-27T06:27:40.524Z,101210.31
2023-02-27T06:30:08.726Z,101210.16
2023-02-27T06:32:36.916Z,101204.75
2023-02-27T06:35:07.130Z,101212.16
2023-02-27T06:37:37.557Z,101199.25
2023-02-27T06:40:06.524Z,101207.94
2023-02-27T06:42:34.413Z,101215.19
2023-02-27T06:45:02.075Z,101203.00
2023-02-27T06:47:29.783Z,101205.97
2023-02-27T06:49:58.041Z,101221.78
2023-02-27T06:52:25.875Z,101208.13
2023-02-27T06:54:53.652Z,101208.41
2023-02-27T06:57:21.364Z,101205.97
2023-02-27T06:59:49.128Z,101201.84
2023-02-27T07:02:21.133Z,101195.13
2023-02-27T07:04:50.825Z,101199.69
2023-02-27T07:07:33.977Z,101185.63
2023-02-27T07:10:06.187Z,101184.75
2023-02-27T07:12:34.250Z,101184.34
2023-02-27T07:15:02.455Z,101186.75
2023-02-27T07:17:31.901Z,101189.44
2023-02-27T07:20:00.863Z,101194.00
2023-02-27T07:22:28.936Z,101186.31
2023-02-27T07:24:56.723Z,101192.44
2023-02-27T07:27:24.763Z,101193.16
2023-02-27T07:29:53.066Z,101188.88
2023-02-27T07:32:20.847Z,101192.59
2023-02-27T07:34:48.739Z,101191.00
2023-02-27T07:37:20.552Z,101195.56
2023-02-27T07:39:48.616Z,101194.84
2023-02-27T07:42:16.809Z,101214.91
2023-02-27T07:44:44.678Z,101197.28
2023-02-27T07:47:12.809Z,101203.28
2023-02-27T07:49:40.551Z,101208.56
2023-02-27T07:52:08.570Z,101208.94
2023-02-27T07:54:37.749Z,101212.38
2023-02-27T07:57:07.569Z,101215.22
2023-02-27T07:59:35.183Z,101201.97
2023-02-27T08:02:03.109Z,101203.84
2023-02-27T08:04:32.031Z,101209.94
2023-02-27T08:07:00.792Z,101205.69
2023-02-27T08:09:28.525Z,101211.78
2023-02-27T08:11:58.697Z,101207.38
2023-02-27T08:14:26.419Z,101203.84
2023-02-27T08:16:54.671Z,101206.69
2023-02-27T08:19:22.255Z,101208.97
2023-02-27T08:21:50.275Z,101216.06
2023-02-27T08:24:18.246Z,101221.59
2023-02-27T08:26:48.035Z,101208.50
2023-02-27T08:29:17.077Z,101209.63
2023-02-27T08:31:45.119Z,101212.28
2023-02-27T08:34:13.233Z,101208.88
2023-02-27T08:36:42.750Z,101203.44
2023-02-27T08:39:10.521Z,101205.16
2023-02-27T08:41:39.029Z,101213.84
2023-02-27T08:44:06.727Z,101213.19
2023-02-27T08:46:35.425Z,101219.81
2023-02-27T08:49:03.755Z,101215.91
2023-02-27T08:51:31.784Z,101226.28
2023-02-27T08:54:06.627Z,101219.75
2023-02-27T08:56:36.705Z,101224.56
2023-02-27T08:59:04.565Z,101232.09
2023-02-27T09:01:34.815Z,101232.28
2023-02-27T09:04:03.825Z,101235.41
2023-02-27T09:06:36.354Z,101227.38
2023-02-27T09:09:04.722Z,101215.47
2023-02-27T09:11:33.007Z,101208.28
2023-02-27T09:14:00.981Z,101208.00
2023-02-27T09:16:30.235Z,101221.84
2023-02-27T09:18:58.873Z,101223.84
2023-02-27T09:21:26.885Z,101222.94
2023-02-27T09:23:55.159Z,101217.34
2023-02-27T09:26:35.691Z,101214.75
2023-02-27T09:29:08.631Z,101209.69
2023-02-27T09:31:38.014Z,101209.69
2023-02-27T09:34:09.466Z,101214.09
2023-02-27T09:36:39.057Z,101217.03
2023-02-27T09:39:09.491Z,101212.84
2023-02-27T09:42:01.303Z,101205.41
2023-02-27T09:44:47.428Z,101202.31
2023-02-27T09:47:22.599Z,101196.88
2023-02-27T09:49:57.376Z,101177.69
2023-02-27T09:52:25.294Z,101189.50
2023-02-27T09:54:55.399Z,101198.38
2023-02-27T09:57:46.734Z,101207.72
2023-02-27T10:00:28.104Z,101203.94
2023-02-27T10:03:16.219Z,101207.22
2023-02-27T10:05:50.848Z,101212.75
2023-02-27T10:08:29.055Z,101203.75
2023-02-27T10:11:01.271Z,101200.47
2023-02-27T10:13:51.180Z,101201.63
2023-02-27T10:30:32.358Z,101194.97
2023-02-27T10:33:10.462Z,101175.09
2023-02-27T10:35:39.443Z,101180.91
2023-02-27T10:38:18.077Z,101171.97
2023-02-27T10:40:45.964Z,101178.09
2023-02-27T10:43:15.987Z,101185.72
2023-02-27T10:45:44.149Z,101176.81
2023-02-27T10:48:15.011Z,101167.47
2023-02-27T10:50:52.848Z,101172.31
2023-02-27T10:53:25.257Z,101175.16
2023-02-27T10:56:03.823Z,101184.97
2023-02-27T10:58:35.039Z,101190.66
2023-02-27T11:01:04.876Z,101202.94
2023-02-27T11:03:41.092Z,101201.75
2023-02-27T11:06:13.150Z,101213.97
2023-02-27T11:08:41.040Z,101227.13
2023-02-27T11:11:11.096Z,101222.69
2023-02-27T11:13:43.414Z,101228.84
2023-02-27T11:16:16.383Z,101223.25
2023-02-27T11:18:50.654Z,101223.78
2023-02-27T11:21:27.651Z,101219.72
2023-02-27T11:24:02.480Z,101227.75
2023-02-27T11:26:34.816Z,101224.34
2023-02-27T11:29:20.453Z,101221.47
2023-02-27T11:31:55.666Z,101226.69
2023-02-27T11:34:29.351Z,101232.41
2023-02-27T11:37:35.689Z,101239.09
2023-02-27T11:40:09.867Z,101243.03
2023-02-27T11:42:42.345Z,101243.47
2023-02-27T11:46:04.168Z,101245.75
2023-02-27T11:48:19.645Z,101237.91
2023-02-27T11:50:57.996Z,101257.41
2023-02-27T11:53:31.124Z,101253.56
2023-02-27T11:56:00.056Z,101256.69
2023-02-27T11:58:33.260Z,101260.88
2023-02-27T12:01:03.869Z,101254.53
2023-02-27T12:03:50.329Z,101250.78
2023-02-27T12:06:47.570Z,101249.75
2023-02-27T12:09:46.269Z,101258.91
2023-02-27T12:12:56.735Z,101264.34
2023-02-27T12:15:34.860Z,101263.97
2023-02-27T12:18:23.393Z,101261.34
2023-02-27T12:21:04.664Z,101261.13
2023-02-27T12:24:02.976Z,101254.44
2023-02-27T12:26:42.329Z,101247.69
2023-02-27T12:29:42.539Z,101261.28
2023-02-27T12:32:14.768Z,101256.75
2023-02-27T12:34:54.367Z,101252.13
2023-02-27T12:37:27.736Z,101251.66
2023-02-27T12:39:57.082Z,101248.09
2023-02-27T12:42:44.158Z,101238.38
2023-02-27T12:45:28.060Z,101247.75
2023-02-27T12:48:21.087Z,101239.69
2023-02-27T12:51:26.732Z,101245.09
2023-02-27T12:54:16.474Z,101240.41
2023-02-27T12:56:44.367Z,101249.38
2023-02-27T12:59:17.065Z,101249.38
2023-02-27T13:01:49.105Z,101259.38
2023-02-27T13:04:26.206Z,101256.47
2023-02-27T13:07:25.474Z,101248.53
2023-02-27T13:10:01.371Z,101240.00
2023-02-27T13:12:43.670Z,101243.44
2023-02-27T13:15:31.694Z,101236.59
2023-02-27T13:18:25.674Z,101227.88
2023-02-27T13:20:58.702Z,101223.19
2023-02-27T13:23:32.330Z,101220.94
2023-02-27T13:26:00.610Z,101221.91
2023-02-27T13:28:29.481Z,101236.56
2023-02-27T13:31:15.696Z,101250.94
2023-02-27T13:34:03.008Z,101238.72
2023-02-27T13:36:36.103Z,101246.84
2023-02-27T13:39:08.019Z,101243.72
2023-02-27T13:41:41.921Z,101235.75
2023-02-27T13:44:22.251Z,101234.19
2023-02-27T13:46:50.662Z,101231.19
2023-02-27T13:49:29.715Z,101236.91
2023-02-27T13:52:00.000Z,101246.84
2023-02-27T13:54:30.510Z,101243.84
2023-02-27T13:57:05.151Z,101239.16
2023-02-27T13:59:37.956Z,101235.59
2023-02-27T14:02:12.532Z,101238.16
2023-02-27T14:05:06.983Z,101234.56
2023-02-27T14:07:53.554Z,101238.28
2023-02-27T14:10:23.636Z,101236.16
2023-02-27T14:12:52.039Z,101230.03
2023-02-27T14:15:24.302Z,101238.28
2023-02-27T14:18:12.406Z,101251.84
2023-02-27T14:20:43.931Z,101251.44
2023-02-27T14:23:17.377Z,101249.16
2023-02-27T14:25:51.111Z,101244.31
2023-02-27T14:28:54.188Z,101253.09
2023-02-27T14:31:33.464Z,101267.94
2023-02-27T14:34:10.575Z,101259.81
2023-02-27T14:36:46.831Z,101267.50
2023-02-27T14:39:33.552Z,101255.53
2023-02-27T14:42:40.373Z,101259.53
2023-02-27T14:45:24.330Z,101264.53
2023-02-27T14:47:53.437Z,101258.25
2023-02-27T14:50:25.997Z,101258.53
2023-02-27T14:52:54.470Z,101261.63
2023-02-27T14:55:30.089Z,101263.38
2023-02-27T14:58:00.437Z,101262.19
2023-02-27T15:01:02.591Z,101278.59
2023-02-27T15:03:50.461Z,101276.31
2023-02-27T15:06:18.524Z,101280.72
2023-02-27T15:08:48.773Z,101280.31
2023-02-27T15:11:22.192Z,101272.19
2023-02-27T15:14:04.709Z,101272.09
2023-02-27T15:16:41.539Z,101272.97
2023-02-27T15:23:43.161Z,101252.53
2023-02-27T15:26:13.309Z,101253.16
2023-02-27T15:28:43.511Z,101275.19
2023-02-27T15:31:18.457Z,101278.63
2023-02-27T15:33:46.338Z,101277.47
2023-02-27T15:36:20.268Z,101281.41
2023-02-27T15:39:08.758Z,101277.31
2023-02-27T15:41:40.021Z,101284.47
2023-02-27T15:44:10.848Z,101293.00
2023-02-27T15:46:38.919Z,101310.47
2023-02-27T15:49:07.033Z,101305.19
2023-02-27T15:51:36.303Z,101307.91
2023-02-27T15:54:04.380Z,101297.22
2023-02-27T15:56:33.693Z,101300.22
2023-02-27T15:59:03.204Z,101295.72
2023-02-27T16:01:32.913Z,101318.97
2023-02-27T16:04:05.801Z,101312.91
2023-02-27T16:06:39.009Z,101321.59
2023-02-27T16:09:20.805Z,101321.84
2023-02-27T16:11:50.025Z,101334.22
2023-02-27T16:14:38.614Z,101354.41
2023-02-27T16:17:32.362Z,101366.28
2023-02-27T16:20:02.326Z,101354.88
2023-02-27T16:22:30.712Z,101369.13
2023-02-27T16:25:11.528Z,101378.56
2023-02-27T16:27:39.932Z,101389.53
2023-02-27T16:30:10.895Z,101391.41
2023-02-27T16:32:42.363Z,101386.78
2023-02-27T16:35:20.999Z,101384.31
2023-02-27T16:37:49.718Z,101377.53
2023-02-27T16:40:23.368Z,101391.00
2023-02-27T16:42:51.957Z,101392.13
2023-02-27T16:45:22.015Z,101394.84
2023-02-27T16:47:54.291Z,101394.16
2023-02-27T16:50:23.156Z,101396.81
2023-02-27T16:52:50.980Z,101391.53
2023-02-27T16:55:21.877Z,101393.09
2023-02-27T16:57:53.595Z,101393.78
2023-02-27T17:00:25.683Z,101389.94
2023-02-27T17:02:54.422Z,101396.16
2023-02-27T17:05:24.397Z,101399.44
2023-02-27T17:07:53.795Z,101406.56
2023-02-27T17:10:22.500Z,101401.69
2023-02-27T17:12:51.959Z,101399.78
2023-02-27T17:15:20.127Z,101389.22
2023-02-27T17:17:49.836Z,101397.44
2023-02-27T17:20:18.219Z,101405.31
2023-02-27T17:22:46.478Z,101402.34
2023-02-27T17:25:14.425Z,101396.13
2023-02-27T17:27:43.750Z,101399.56
2023-02-27T17:30:12.351Z,101394.72
2023-02-27T17:32:40.594Z,101397.09
2023-02-27T17:35:09.089Z,101401.81
2023-02-27T17:37:37.118Z,101407.13
2023-02-27T17:40:06.321Z,101399.78
2023-02-27T17:42:36.438Z,101410.63
2023-02-27T17:45:06.778Z,101404.63
2023-02-27T17:47:35.588Z,101401.00
2023-02-27T17:50:04.477Z,101415.22
2023-02-27T17:52:35.989Z,101411.31
2023-02-27T17:55:04.394Z,101413.00
2023-02-27T17:57:35.733Z,101422.03
2023-02-27T18:00:04.901Z,101432.72
2023-02-27T18:02:36.872Z,101432.59
2023-02-27T18:05:06.154Z,101442.53
2023-02-27T18:07:34.935Z,101441.34
2023-02-27T18:10:05.674Z,101438.13
2023-02-27T18:12:33.669Z,101439.81
2023-02-27T18:15:07.381Z,101439.44
2023-02-27T18:17:36.017Z,101444.00
2023-02-27T18:20:05.428Z,101446.03
2023-02-27T18:22:34.560Z,101453.38
2023-02-27T18:25:02.413Z,101463.44
2023-02-27T18:27:30.381Z,101466.59
2023-02-27T18:29:58.543Z,101472.38
2023-02-27T18:32:26.465Z,101474.66
2023-02-27T18:34:54.318Z,101474.91
2023-02-27T18:37:21.981Z,101479.84
2023-02-27T18:39:50.418Z,101482.25
2023-02-27T18:42:18.270Z,101486.97
2023-02-27T18:44:47.806Z,101487.84
2023-02-27T18:47:15.550Z,101485.56
2023-02-27T18:49:43.432Z,101488.19
2023-02-27T18:52:11.474Z,101479.56
2023-02-27T18:54:43.342Z,101479.03
2023-02-27T18:57:11.525Z,101483.75
2023-02-27T18:59:41.447Z,101483.53
2023-02-27T19:02:16.514Z,101481.84
2023-02-27T19:04:44.110Z,101485.38
2023-02-27T19:07:12.203Z,101486.72
2023-02-27T19:09:40.267Z,101487.09
2023-02-27T19:12:10.880Z,101486.06
2023-02-27T19:14:39.032Z,101493.63
2023-02-27T19:17:09.515Z,101500.38
2023-02-27T19:19:37.662Z,101489.81
2023-02-27T19:22:05.377Z,101495.47
2023-02-27T19:24:36.176Z,101489.25
2023-02-27T19:27:04.188Z,101495.22
2023-02-27T19:29:36.852Z,101499.44
2023-02-27T19:32:08.418Z,101493.28
2023-02-27T19:34:36.303Z,101508.31
2023-02-27T19:37:04.312Z,101506.78
2023-02-27T19:39:32.107Z,101501.53
2023-02-27T19:42:00.399Z,101502.69
2023-02-27T19:44:28.235Z,101489.75
2023-02-27T19:46:56.970Z,101489.00
2023-02-27T19:49:25.285Z,101496.88
2023-02-27T19:51:53.233Z,101508.56
2023-02-27T19:54:21.114Z,101509.50
2023-02-27T19:56:49.133Z,101513.25
2023-02-27T19:59:18.391Z,101511.72
2023-02-27T20:01:46.257Z,101527.78
2023-02-27T20:04:14.388Z,101532.13
2023-02-27T20:06:44.570Z,101536.69
2023-02-27T20:09:14.821Z,101531.91
2023-02-27T20:11:44.942Z,101522.75
2023-02-27T20:14:14.066Z,101515.41
2023-02-27T20:16:42.074Z,101530.88
2023-02-27T20:19:12.072Z,101532.47
2023-02-27T20:21:41.620Z,101525.47
2023-02-27T20:24:10.587Z,101526.69
2023-02-27T20:26:49.684Z,101515.53
2023-02-27T20:29:19.719Z,101520.31
2023-02-27T20:31:48.796Z,101523.28
2023-02-27T20:34:22.062Z,101521.06
2023-02-27T20:36:52.542Z,101520.31
2023-02-27T20:39:22.695Z,101524.94
2023-02-27T20:41:50.561Z,101529.53
2023-02-27T20:44:18.451Z,101533.84
2023-02-27T20:46:49.299Z,101537.41
2023-02-27T20:49:21.024Z,101532.13
2023-02-27T20:51:48.708Z,101527.34
2023-02-27T20:54:20.690Z,101527.06
2023-02-27T20:56:51.979Z,101538.00
2023-02-27T20:59:20.821Z,101529.28
2023-02-27T21:01:52.058Z,101546.81
2023-02-27T21:04:42.307Z,101537.97
2023-02-27T21:07:11.848Z,101535.88
2023-02-27T21:09:42.452Z,101549.97
2023-02-27T21:12:10.728Z,101561.16
2023-02-27T21:14:38.963Z,101559.94
2023-02-27T21:17:07.108Z,101567.41
2023-02-27T21:19:35.026Z,101574.66
2023-02-27T21:22:02.918Z,101578.13
2023-02-27T21:24:32.326Z,101582.41
2023-02-27T21:27:00.499Z,101586.22
2023-02-27T21:29:28.366Z,101571.81
2023-02-27T21:31:57.252Z,101575.53
2023-02-27T21:34:26.064Z,101577.34
2023-02-27T21:36:54.267Z,101595.91
2023-02-27T21:39:41.852Z,101585.25
2023-02-27T21:42:09.749Z,101576.53
2023-02-27T21:44:37.777Z,101581.19
2023-02-27T21:47:10.353Z,101587.31
2023-02-27T21:49:39.446Z,101582.16
2023-02-27T21:52:07.181Z,101574.56
2023-02-27T21:54:34.907Z,101578.97
2023-02-27T21:57:03.438Z,101569.91
2023-02-27T21:59:31.283Z,101575.53
2023-02-27T22:01:59.449Z,101583.41
2023-02-27T22:04:27.200Z,101588.56
2023-02-27T22:06:54.929Z,101584.25
2023-02-27T22:09:24.353Z,101588.56
2023-02-27T22:11:52.468Z,101583.88
2023-02-27T22:14:20.646Z,101591.00
2023-02-27T22:16:50.380Z,101595.03
2023-02-27T22:19:22.197Z,101597.91
2023-02-27T22:21:50.237Z,101605.72
2023-02-27T22:24:18.539Z,101610.41
2023-02-27T22:26:47.989Z,101622.31
2023-02-27T22:29:17.224Z,101631.13
2023-02-27T22:31:45.476Z,101629.53
2023-02-27T22:34:18.260Z,101612.84
2023-02-27T22:36:47.211Z,101605.94
2023-02-27T22:39:15.405Z,101599.34
2023-02-27T22:41:43.737Z,101600.81
2023-02-27T22:44:12.846Z,101602.50
2023-02-27T22:46:43.212Z,101610.13
2023-02-27T22:49:19.029Z,101621.03
2023-02-27T22:51:50.725Z,101622.66
2023-02-27T22:54:20.438Z,101628.53
2023-02-27T22:56:50.368Z,101621.91
2023-02-27T22:59:30.970Z,101630.97
2023-02-27T23:01:59.531Z,101631.47
2023-02-27T23:04:27.521Z,101644.25
2023-02-27T23:06:56.596Z,101635.16
2023-02-27T23:09:26.370Z,101646.09
2023-02-27T23:11:55.400Z,101652.81
2023-02-27T23:14:23.998Z,101657.75
2023-02-27T23:16:52.167Z,101663.28
2023-02-27T23:19:20.625Z,101665.47
2023-02-27T23:21:55.147Z,101668.41
2023-02-27T23:24:23.123Z,101666.44
2023-02-27T23:26:51.686Z,101669.19
2023-02-27T23:29:20.018Z,101679.09
2023-02-27T23:31:48.276Z,101678.97
2023-02-27T23:34:18.582Z,101681.13
2023-02-27T23:36:46.732Z,101688.91
2023-02-27T23:39:14.497Z,101679.06
2023-02-27T23:41:42.661Z,101669.19
2023-02-27T23:44:10.421Z,101677.00
2023-02-27T23:46:38.340Z,101674.75
2023-02-27T23:49:06.173Z,101689.50
2023-02-27T23:51:34.936Z,101689.00
2023-02-27T23:54:03.720Z,101701.88
2023-02-27T23:56:32.426Z,101692.09
2023-02-27T23:59:01.782Z,101693.94
